createdAt,value
2018-08-25T00:00:39.943Z,74.60
2018-08-25T00:03:08.503Z,75.40
2018-08-25T00:05:36.873Z,75.20
2018-08-25T00:08:05.279Z,75.60
2018-08-25T00:10:33.672Z,74.40
2018-08-25T00:13:02.009Z,74.70
2018-08-25T00:15:30.403Z,74.20
2018-08-25T00:17:58.884Z,74.80
2018-08-25T00:20:27.286Z,74.90
2018-08-25T00:22:55.637Z,75.50
2018-08-25T00:25:23.976Z,75.50
2018-08-25T00:27:52.313Z,75.60
2018-08-25T00:30:26.041Z,76.40
2018-08-25T00:32:54.411Z,76.80
2018-08-25T00:35:22.804Z,78.90
2018-08-25T00:37:51.151Z,80.40
2018-08-25T00:40:19.519Z,81.30
2018-08-25T00:42:47.853Z,82.40
2018-08-25T00:45:16.237Z,82.50
2018-08-25T00:47:44.712Z,83.50
2018-08-25T00:50:13.023Z,84.50
2018-08-25T00:52:41.462Z,85.90
2018-08-25T00:55:09.880Z,87.30
2018-08-25T00:57:38.323Z,88.20
2018-08-25T01:00:06.756Z,89.00
2018-08-25T01:02:35.161Z,89.50
2018-08-25T01:05:03.672Z,90.00
2018-08-25T01:07:32.051Z,90.40
2018-08-25T01:10:00.453Z,90.70
2018-08-25T01:12:28.846Z,91.10
2018-08-25T01:14:57.208Z,91.60
2018-08-25T01:17:25.590Z,91.90
2018-08-25T01:19:54.012Z,92.00
2018-08-25T01:22:22.386Z,92.40
2018-08-25T01:24:50.740Z,92.50
2018-08-25T01:27:19.094Z,92.40
2018-08-25T01:29:47.464Z,92.40
2018-08-25T01:32:15.845Z,92.80
2018-08-25T01:34:44.193Z,92.90
2018-08-25T01:37:12.551Z,93.00
2018-08-25T01:39:40.937Z,93.50
2018-08-25T01:42:09.307Z,93.40
2018-08-25T01:44:37.680Z,93.50
2018-08-25T01:47:06.026Z,93.60
2018-08-25T01:49:34.397Z,93.60
2018-08-25T01:52:02.737Z,93.70
2018-08-25T01:54:31.103Z,93.90
2018-08-25T01:56:59.478Z,93.90
2018-08-25T01:59:27.915Z,94.10
2018-08-25T02:01:56.245Z,94.40
2018-08-25T02:04:24.584Z,94.40
2018-08-25T02:06:52.967Z,94.50
2018-08-25T02:09:21.369Z,94.80
2018-08-25T02:11:49.744Z,94.90
2018-08-25T02:14:18.163Z,95.10
2018-08-25T02:16:46.523Z,95.20
2018-08-25T02:19:14.884Z,95.30
2018-08-25T02:21:43.258Z,95.70
2018-08-25T02:24:11.654Z,96.00
2018-08-25T02:26:40.035Z,96.40
2018-08-25T02:29:08.397Z,96.60
2018-08-25T02:31:36.800Z,97.00
2018-08-25T02:34:05.265Z,97.10
2018-08-25T02:36:33.647Z,97.70
2018-08-25T02:39:02.160Z,97.90
2018-08-25T02:41:30.546Z,98.10
2018-08-25T02:43:58.909Z,98.50
2018-08-25T02:46:27.575Z,99.00
2018-08-25T02:48:55.936Z,99.10
2018-08-25T02:51:24.290Z,99.00
2018-08-25T02:53:52.712Z,99.30
2018-08-25T02:56:21.194Z,99.30
2018-08-25T02:58:49.569Z,99.50
2018-08-25T03:01:17.921Z,99.90
2018-08-25T03:03:46.268Z,99.90
2018-08-25T03:06:14.673Z,99.90
2018-08-25T03:08:43.033Z,99.90
2018-08-25T03:11:11.359Z,99.90
2018-08-25T03:13:39.744Z,99.90
2018-08-25T03:16:08.134Z,99.90
2018-08-25T03:18:36.555Z,99.90
2018-08-25T03:21:04.931Z,99.90
2018-08-25T03:23:33.306Z,99.90
2018-08-25T03:26:01.654Z,99.90
2018-08-25T03:28:29.969Z,99.90
2018-08-25T03:30:58.319Z,99.90
2018-08-25T03:33:26.702Z,99.90
2018-08-25T03:35:55.362Z,99.90
2018-08-25T03:38:23.814Z,99.90
2018-08-25T03:40:52.168Z,99.90
2018-08-25T03:43:20.557Z,99.90
2018-08-25T03:45:48.936Z,99.90
2018-08-25T03:48:17.287Z,99.90
2018-08-25T03:50:45.654Z,99.90
2018-08-25T03:53:14.021Z,99.90
2018-08-25T03:55:42.414Z,99.90
2018-08-25T03:58:10.782Z,99.90
2018-08-25T04:00:39.147Z,99.90
2018-08-25T04:03:07.481Z,99.90
2018-08-25T04:05:35.864Z,99.90
2018-08-25T04:08:04.265Z,99.90
2018-08-25T04:10:32.626Z,99.90
2018-08-25T04:13:00.973Z,99.90
2018-08-25T04:15:29.359Z,99.90
2018-08-25T04:17:57.833Z,99.90
2018-08-25T04:20:26.262Z,99.90
2018-08-25T04:22:54.601Z,99.90
2018-08-25T04:25:23.982Z,99.90
2018-08-25T04:27:52.326Z,99.90
2018-08-25T04:30:20.721Z,99.90
2018-08-25T04:32:49.435Z,99.90
2018-08-25T04:35:17.934Z,99.90
2018-08-25T04:37:46.457Z,99.90
2018-08-25T04:40:14.799Z,99.90
2018-08-25T04:42:43.149Z,99.90
2018-08-25T04:45:11.515Z,99.90
2018-08-25T04:47:44.056Z,99.90
2018-08-25T04:50:12.467Z,99.90
2018-08-25T04:52:40.846Z,99.90
2018-08-25T04:55:09.226Z,99.90
2018-08-25T04:57:37.627Z,99.90
2018-08-25T05:00:06.040Z,99.90
2018-08-25T05:02:34.424Z,99.90
2018-08-25T05:05:02.781Z,99.90
2018-08-25T05:07:31.125Z,99.90
2018-08-25T05:09:59.502Z,99.90
2018-08-25T05:12:27.842Z,99.90
2018-08-25T05:14:56.181Z,99.90
2018-08-25T05:17:24.623Z,99.90
2018-08-25T05:19:52.997Z,99.90
2018-08-25T05:22:21.920Z,99.90
2018-08-25T05:24:50.299Z,99.90
2018-08-25T05:27:18.635Z,99.90
2018-08-25T05:29:46.997Z,99.90
2018-08-25T05:32:15.494Z,99.90
2018-08-25T05:34:44.011Z,99.90
2018-08-25T05:37:12.454Z,99.90
2018-08-25T05:39:40.819Z,99.90
2018-08-25T05:42:09.239Z,99.90
2018-08-25T05:44:37.677Z,99.90
2018-08-25T05:47:06.225Z,99.90
2018-08-25T05:49:34.603Z,99.90
2018-08-25T05:52:02.969Z,99.90
2018-08-25T05:54:31.293Z,99.90
2018-08-25T05:56:59.677Z,99.90
2018-08-25T05:59:28.103Z,99.90
2018-08-25T06:01:56.458Z,99.90
2018-08-25T06:04:24.822Z,99.90
2018-08-25T06:06:53.213Z,99.90
2018-08-25T06:09:21.603Z,99.90
2018-08-25T06:11:50.022Z,99.90
2018-08-25T06:14:18.375Z,99.90
2018-08-25T06:16:47.130Z,99.90
2018-08-25T06:19:15.492Z,99.90
2018-08-25T06:21:43.902Z,99.90
2018-08-25T06:24:12.318Z,99.90
2018-08-25T06:26:40.853Z,99.90
2018-08-25T06:29:09.337Z,99.90
2018-08-25T06:31:37.683Z,99.90
2018-08-25T06:34:06.097Z,99.90
2018-08-25T06:36:34.481Z,99.90
2018-08-25T06:39:02.935Z,99.90
2018-08-25T06:41:31.375Z,99.90
2018-08-25T06:43:59.728Z,99.90
2018-08-25T06:46:28.097Z,99.90
2018-08-25T06:48:56.446Z,99.90
2018-08-25T06:51:24.822Z,99.90
2018-08-25T06:53:53.214Z,99.90
2018-08-25T06:56:21.671Z,99.90
2018-08-25T06:58:50.053Z,99.90
2018-08-25T07:01:18.438Z,99.90
2018-08-25T07:03:46.936Z,99.90
2018-08-25T07:06:15.330Z,99.90
2018-08-25T07:08:43.755Z,99.90
2018-08-25T07:11:12.129Z,99.90
2018-08-25T07:13:40.504Z,99.90
2018-08-25T07:16:08.867Z,99.90
2018-08-25T07:18:37.255Z,99.90
2018-08-25T07:21:05.666Z,99.90
2018-08-25T07:23:34.035Z,99.90
2018-08-25T07:26:02.513Z,99.90
2018-08-25T07:28:30.809Z,99.90
2018-08-25T07:30:59.163Z,99.90
2018-08-25T07:33:27.535Z,99.90
2018-08-25T07:35:55.887Z,99.90
2018-08-25T07:38:24.312Z,99.90
2018-08-25T07:40:52.673Z,99.90
2018-08-25T07:43:21.047Z,99.90
2018-08-25T07:45:49.470Z,99.90
2018-08-25T07:48:17.931Z,99.90
2018-08-25T07:50:46.311Z,99.90
2018-08-25T07:53:14.697Z,99.90
2018-08-25T07:55:43.083Z,99.90
2018-08-25T07:58:11.536Z,99.90
2018-08-25T08:00:39.927Z,99.90
2018-08-25T08:03:08.300Z,99.90
2018-08-25T08:05:36.699Z,99.90
2018-08-25T08:08:05.071Z,99.90
2018-08-25T08:10:33.479Z,99.90
2018-08-25T08:13:01.855Z,99.90
2018-08-25T08:15:30.255Z,99.90
2018-08-25T08:17:58.786Z,99.90
2018-08-25T08:20:27.166Z,99.90
2018-08-25T08:22:55.621Z,99.90
2018-08-25T08:25:23.999Z,99.90
2018-08-25T08:27:52.355Z,99.90
2018-08-25T08:30:20.732Z,99.90
2018-08-25T08:32:49.160Z,99.90
2018-08-25T08:35:17.647Z,99.90
2018-08-25T08:37:46.037Z,99.90
2018-08-25T08:40:14.410Z,99.90
2018-08-25T08:42:43.107Z,99.90
2018-08-25T08:45:11.512Z,99.90
2018-08-25T08:47:39.987Z,99.90
2018-08-25T08:50:10.122Z,99.90
2018-08-25T08:52:39.018Z,99.90
2018-08-25T08:55:07.805Z,99.90
2018-08-25T08:57:36.710Z,99.90
2018-08-25T09:00:05.418Z,99.90
2018-08-25T09:02:33.858Z,99.90
2018-08-25T09:05:02.227Z,99.90
2018-08-25T09:07:30.644Z,99.90
2018-08-25T09:09:58.990Z,99.90
2018-08-25T09:12:27.427Z,99.90
2018-08-25T09:14:55.831Z,99.90
2018-08-25T09:17:24.152Z,99.90
2018-08-25T09:19:52.510Z,99.90
2018-08-25T09:22:20.896Z,99.90
2018-08-25T09:24:49.288Z,99.90
2018-08-25T09:27:17.732Z,99.90
2018-08-25T09:29:46.087Z,99.90
2018-08-25T09:32:14.467Z,99.90
2018-08-25T09:34:42.824Z,99.90
2018-08-25T09:37:11.222Z,99.90
2018-08-25T09:39:39.696Z,99.90
2018-08-25T09:42:08.110Z,99.90
2018-08-25T09:44:36.486Z,99.90
2018-08-25T09:47:05.020Z,99.90
2018-08-25T09:49:33.282Z,99.90
2018-08-25T09:52:01.619Z,99.90
2018-08-25T09:54:30.022Z,99.90
2018-08-25T09:56:58.389Z,99.90
2018-08-25T09:59:26.776Z,99.90
2018-08-25T10:01:59.653Z,99.90
2018-08-25T10:04:28.643Z,99.90
2018-08-25T10:06:57.077Z,99.90
2018-08-25T10:09:25.453Z,99.90
2018-08-25T10:11:53.895Z,99.90
2018-08-25T10:14:22.408Z,99.90
2018-08-25T10:16:50.875Z,99.90
2018-08-25T10:19:19.213Z,99.90
2018-08-25T10:21:47.581Z,99.90
2018-08-25T10:24:15.984Z,99.90
2018-08-25T10:26:44.402Z,99.90
2018-08-25T10:29:12.757Z,99.20
2018-08-25T10:31:41.156Z,96.30
2018-08-25T10:34:09.529Z,95.00
2018-08-25T10:36:37.890Z,93.10
2018-08-25T10:39:09.645Z,91.70
2018-08-25T10:41:38.033Z,91.20
2018-08-25T10:44:06.983Z,90.60
2018-08-25T10:46:35.634Z,90.40
2018-08-25T10:49:04.086Z,90.60
2018-08-25T10:51:32.511Z,87.70
2018-08-25T10:54:00.925Z,85.50
2018-08-25T10:56:29.223Z,85.00
2018-08-25T10:58:57.679Z,88.50
2018-08-25T11:01:26.101Z,91.50
2018-08-25T11:03:54.477Z,92.00
2018-08-25T11:06:23.580Z,92.90
2018-08-25T11:08:52.024Z,92.60
2018-08-25T11:11:20.604Z,94.20
2018-08-25T11:13:49.014Z,93.60
2018-08-25T11:16:17.360Z,93.50
2018-08-25T11:18:45.786Z,93.00
2018-08-25T11:21:14.138Z,92.20
2018-08-25T11:23:42.575Z,90.80
2018-08-25T11:26:10.896Z,90.10
2018-08-25T11:28:39.266Z,90.20
2018-08-25T11:31:07.647Z,85.30
2018-08-25T11:33:36.132Z,83.10
2018-08-25T11:36:04.491Z,79.40
2018-08-25T11:38:32.907Z,79.30
2018-08-25T11:41:01.293Z,76.40
2018-08-25T11:43:29.785Z,78.80
2018-08-25T11:45:58.130Z,77.80
2018-08-25T11:48:26.476Z,76.90
2018-08-25T11:50:55.122Z,72.90
2018-08-25T11:53:23.508Z,64.30
2018-08-25T11:55:51.851Z,61.30
2018-08-25T11:58:20.319Z,60.90
2018-08-25T12:00:48.703Z,62.80
2018-08-25T12:03:17.057Z,60.70
2018-08-25T12:05:45.440Z,59.40
2018-08-25T12:08:13.824Z,58.40
2018-08-25T12:10:42.179Z,59.50
2018-08-25T12:13:10.523Z,58.50
2018-08-25T12:15:38.907Z,59.50
2018-08-25T12:18:07.294Z,59.90
2018-08-25T12:20:35.667Z,58.00
2018-08-25T12:23:04.379Z,57.70
2018-08-25T12:25:32.780Z,56.30
2018-08-25T12:28:01.147Z,57.30
2018-08-25T12:30:29.507Z,57.90
2018-08-25T12:32:58.111Z,59.50
2018-08-25T12:35:26.479Z,60.50
2018-08-25T12:37:54.915Z,61.90
2018-08-25T12:40:23.307Z,61.90
2018-08-25T12:42:51.674Z,61.60
2018-08-25T12:45:20.011Z,59.90
2018-08-25T12:47:48.378Z,59.40
2018-08-25T12:50:16.724Z,59.50
2018-08-25T12:52:45.208Z,59.20
2018-08-25T12:55:13.561Z,57.90
2018-08-25T12:57:42.034Z,58.20
2018-08-25T13:00:10.455Z,57.70
2018-08-25T13:02:38.881Z,56.90
2018-08-25T13:05:07.368Z,58.80
2018-08-25T13:07:35.823Z,61.40
2018-08-25T13:10:04.164Z,62.90
2018-08-25T13:12:33.500Z,63.80
2018-08-25T13:15:01.903Z,62.70
2018-08-25T13:17:30.710Z,64.20
2018-08-25T13:19:59.135Z,64.30
2018-08-25T13:22:28.397Z,62.80
2018-08-25T13:24:56.826Z,63.80
2018-08-25T13:27:25.180Z,64.90
2018-08-25T13:29:53.594Z,64.50
2018-08-25T13:32:21.972Z,65.10
2018-08-25T13:34:50.416Z,66.10
2018-08-25T13:37:18.811Z,65.80
2018-08-25T13:39:47.254Z,64.70
2018-08-25T13:42:15.611Z,65.20
2018-08-25T13:44:44.015Z,65.40
2018-08-25T13:47:12.465Z,63.90
2018-08-25T13:49:40.900Z,64.60
2018-08-25T13:52:09.288Z,64.70
2018-08-25T13:54:37.676Z,65.40
2018-08-25T13:57:06.400Z,64.30
2018-08-25T13:59:34.980Z,64.60
2018-08-25T14:02:03.500Z,65.30
2018-08-25T14:04:31.882Z,65.00
2018-08-25T14:07:00.282Z,65.60
2018-08-25T14:09:28.689Z,67.30
2018-08-25T14:11:57.082Z,66.10
2018-08-25T14:14:25.481Z,66.70
2018-08-25T14:16:53.870Z,67.60
2018-08-25T14:19:22.280Z,67.10
2018-08-25T14:21:50.696Z,67.80
2018-08-25T14:24:19.038Z,66.50
2018-08-25T14:26:47.472Z,67.20
2018-08-25T14:29:15.856Z,64.60
2018-08-25T14:31:44.283Z,64.50
2018-08-25T14:34:12.657Z,63.90
2018-08-25T14:36:41.112Z,62.30
2018-08-25T14:39:10.719Z,64.70
2018-08-25T14:41:39.110Z,64.20
2018-08-25T14:44:07.439Z,62.10
2018-08-25T14:46:37.190Z,61.90
2018-08-25T14:49:06.185Z,61.40
2018-08-25T14:51:34.590Z,60.30
2018-08-25T14:54:03.003Z,60.70
2018-08-25T14:56:31.435Z,62.20
2018-08-25T14:58:59.823Z,64.10
2018-08-25T15:01:28.242Z,63.00
2018-08-25T15:03:57.036Z,64.00
2018-08-25T15:06:25.654Z,63.60
2018-08-25T15:08:54.086Z,64.90
2018-08-25T15:11:22.450Z,67.20
2018-08-25T15:13:50.827Z,64.30
2018-08-25T15:16:19.191Z,62.40
2018-08-25T15:18:47.614Z,61.80
2018-08-25T15:21:15.975Z,62.30
2018-08-25T15:23:44.372Z,61.90
2018-08-25T15:26:12.790Z,62.20
2018-08-25T15:28:41.225Z,61.20
2018-08-25T15:31:09.658Z,61.50
2018-08-25T15:33:38.009Z,60.20
2018-08-25T15:36:06.405Z,60.80
2018-08-25T15:38:34.780Z,62.10
2018-08-25T15:41:03.163Z,64.20
2018-08-25T15:43:31.529Z,65.20
2018-08-25T15:45:59.893Z,65.90
2018-08-25T15:48:28.389Z,66.90
2018-08-25T15:50:56.905Z,66.00
2018-08-25T15:53:25.454Z,65.30
2018-08-25T15:55:53.911Z,66.40
2018-08-25T15:58:22.335Z,66.10
2018-08-25T16:00:51.002Z,64.40
2018-08-25T16:03:19.402Z,66.20
2018-08-25T16:05:47.767Z,68.20
2018-08-25T16:08:17.020Z,68.30
2018-08-25T16:10:45.461Z,66.50
2018-08-25T16:13:13.859Z,66.20
2018-08-25T16:15:43.143Z,68.40
2018-08-25T16:18:11.559Z,68.50
2018-08-25T16:20:40.008Z,68.30
2018-08-25T16:23:08.319Z,68.80
2018-08-25T16:25:36.725Z,68.30
2018-08-25T16:28:05.122Z,69.60
2018-08-25T16:30:33.462Z,70.90
2018-08-25T16:33:01.880Z,72.00
2018-08-25T16:35:30.242Z,70.10
2018-08-25T16:37:58.612Z,71.00
2018-08-25T16:40:27.033Z,70.20
2018-08-25T16:42:55.459Z,69.80
2018-08-25T16:45:23.947Z,69.90
2018-08-25T16:47:52.314Z,69.40
2018-08-25T16:50:20.712Z,69.10
2018-08-25T16:52:49.096Z,69.50
2018-08-25T16:55:17.562Z,68.20
2018-08-25T16:57:45.898Z,69.60
2018-08-25T17:00:14.368Z,70.40
2018-08-25T17:02:42.731Z,69.70
2018-08-25T17:05:11.132Z,70.00
2018-08-25T17:07:39.526Z,69.10
2018-08-25T17:10:07.999Z,70.20
2018-08-25T17:12:36.451Z,71.60
2018-08-25T17:15:05.534Z,71.70
2018-08-25T17:17:33.915Z,69.60
2018-08-25T17:20:02.352Z,70.30
2018-08-25T17:22:30.724Z,69.60
2018-08-25T17:24:59.106Z,68.80
2018-08-25T17:27:27.486Z,69.20
2018-08-25T17:29:55.851Z,68.30
2018-08-25T17:32:24.216Z,67.50
2018-08-25T17:34:52.646Z,68.30
2018-08-25T17:37:21.082Z,69.10
2018-08-25T17:39:49.564Z,68.40
2018-08-25T17:42:17.961Z,70.00
2018-08-25T17:44:46.343Z,69.90
2018-08-25T17:47:14.753Z,70.30
2018-08-25T17:49:43.271Z,70.70
2018-08-25T17:52:11.986Z,70.90
2018-08-25T17:54:40.444Z,71.00
2018-08-25T17:57:08.960Z,71.80
2018-08-25T17:59:37.328Z,71.90
2018-08-25T18:02:05.801Z,72.70
2018-08-25T18:04:34.196Z,72.70
2018-08-25T18:07:02.620Z,74.20
2018-08-25T18:09:31.042Z,75.80
2018-08-25T18:11:59.446Z,77.50
2018-08-25T18:14:28.092Z,79.10
2018-08-25T18:16:56.773Z,80.60
2018-08-25T18:19:25.398Z,81.70
2018-08-25T18:21:54.143Z,83.00
2018-08-25T18:24:22.589Z,82.50
2018-08-25T18:26:50.998Z,84.00
2018-08-25T18:29:19.383Z,84.00
2018-08-25T18:31:48.111Z,84.40
2018-08-25T18:34:16.815Z,84.30
2018-08-25T18:36:45.578Z,85.60
2018-08-25T18:39:14.489Z,85.00
2018-08-25T18:41:43.621Z,85.80
2018-08-25T18:44:12.401Z,85.90
2018-08-25T18:46:41.172Z,87.00
2018-08-25T18:49:09.598Z,86.90
2018-08-25T18:51:37.948Z,87.50
2018-08-25T18:54:06.762Z,88.90
2018-08-25T18:56:35.475Z,89.50
2018-08-25T18:59:03.942Z,90.00
2018-08-25T19:01:33.116Z,89.80
2018-08-25T19:04:01.660Z,89.30
2018-08-25T19:06:30.359Z,90.00
2018-08-25T19:08:58.834Z,90.60
2018-08-25T19:11:27.402Z,91.00
2018-08-25T19:13:56.114Z,90.90
2018-08-25T19:16:24.594Z,91.00
2018-08-25T19:18:53.193Z,91.10
2018-08-25T19:21:21.896Z,91.20
2018-08-25T19:23:50.693Z,90.30
2018-08-25T19:26:19.465Z,90.40
2018-08-25T19:28:48.148Z,90.50
2018-08-25T19:31:16.856Z,90.30
2018-08-25T19:33:45.616Z,90.20
2018-08-25T19:36:14.282Z,90.40
2018-08-25T19:38:43.079Z,90.80
2018-08-25T19:41:12.269Z,91.30
2018-08-25T19:43:41.142Z,92.00
2018-08-25T19:46:09.919Z,91.90
2018-08-25T19:48:38.895Z,92.20
2018-08-25T19:51:07.720Z,92.00
2018-08-25T19:53:36.476Z,92.20
2018-08-25T19:56:05.095Z,92.90
2018-08-25T19:58:33.823Z,93.10
2018-08-25T20:01:02.515Z,93.30
2018-08-25T20:03:31.253Z,93.00
2018-08-25T20:05:59.961Z,93.10
2018-08-25T20:08:28.560Z,92.80
2018-08-25T20:11:04.786Z,93.50
2018-08-25T20:13:34.166Z,93.90
2018-08-25T20:16:02.915Z,94.50
2018-08-25T20:18:31.380Z,94.70
2018-08-25T20:21:00.143Z,94.80
2018-08-25T20:23:28.974Z,95.60
2018-08-25T20:25:57.634Z,95.20
2018-08-25T20:28:26.403Z,94.90
2018-08-25T20:30:54.925Z,94.90
2018-08-25T20:33:23.301Z,95.20
2018-08-25T20:35:51.982Z,95.40
2018-08-25T20:38:20.727Z,95.40
2018-08-25T20:40:49.138Z,95.30
2018-08-25T20:43:17.772Z,94.40
2018-08-25T20:45:46.274Z,93.80
2018-08-25T20:48:14.764Z,93.50
2018-08-25T20:50:43.207Z,92.80
2018-08-25T20:53:11.629Z,92.50
2018-08-25T20:55:40.028Z,93.10
2018-08-25T20:58:08.446Z,93.10
2018-08-25T21:00:36.886Z,93.50
2018-08-25T21:03:05.286Z,93.50
2018-08-25T21:05:33.716Z,93.70
2018-08-25T21:08:02.130Z,94.00
2018-08-25T21:10:30.570Z,93.90
2018-08-25T21:12:58.926Z,94.30
2018-08-25T21:15:27.368Z,94.50
2018-08-25T21:17:56.362Z,94.90
2018-08-25T21:20:24.755Z,95.00
2018-08-25T21:22:53.268Z,95.20
2018-08-25T21:25:21.568Z,95.20
2018-08-25T21:27:49.978Z,95.30
2018-08-25T21:30:18.416Z,95.60
2018-08-25T21:32:47.354Z,95.60
2018-08-25T21:35:15.746Z,95.80
2018-08-25T21:37:44.154Z,96.20
2018-08-25T21:40:12.488Z,96.40
2018-08-25T21:42:40.906Z,96.20
2018-08-25T21:45:09.322Z,96.50
2018-08-25T21:47:37.719Z,96.70
2018-08-25T21:50:06.608Z,96.70
2018-08-25T21:52:35.337Z,97.20
2018-08-25T21:55:03.776Z,97.60
2018-08-25T21:57:32.407Z,97.70
2018-08-25T22:00:00.857Z,98.20
2018-08-25T22:02:29.249Z,98.50
2018-08-25T22:04:57.694Z,98.30
2018-08-25T22:07:26.100Z,98.60
2018-08-25T22:09:54.576Z,99.00
2018-08-25T22:12:22.939Z,99.40
2018-08-25T22:14:51.344Z,99.50
2018-08-25T22:17:19.731Z,99.70
2018-08-25T22:19:48.112Z,99.70
2018-08-25T22:22:16.737Z,99.90
2018-08-25T22:24:45.135Z,99.70
2018-08-25T22:27:13.547Z,99.70
2018-08-25T22:29:41.999Z,99.90
2018-08-25T22:32:10.350Z,99.90
2018-08-25T22:34:38.735Z,99.90
2018-08-25T22:37:07.132Z,99.90
2018-08-25T22:39:35.591Z,99.90
2018-08-25T22:42:04.054Z,99.90
2018-08-25T22:44:32.412Z,99.90
2018-08-25T22:47:00.927Z,99.90
2018-08-25T22:49:29.276Z,99.90
2018-08-25T22:51:57.646Z,99.90
2018-08-25T22:54:26.030Z,99.90
2018-08-25T22:56:54.534Z,99.90
2018-08-25T22:59:22.974Z,99.90
2018-08-25T23:01:51.399Z,99.90
2018-08-25T23:04:19.782Z,99.90
2018-08-25T23:06:48.160Z,99.90
2018-08-25T23:09:16.545Z,99.90
2018-08-25T23:11:44.956Z,99.90
2018-08-25T23:14:13.358Z,99.90
2018-08-25T23:16:41.728Z,99.90
2018-08-25T23:19:10.062Z,99.90
2018-08-25T23:21:38.470Z,99.90
2018-08-25T23:24:06.874Z,99.90
2018-08-25T23:26:35.256Z,99.90
2018-08-25T23:29:03.631Z,99.90
2018-08-25T23:31:32.001Z,99.90
2018-08-25T23:34:00.409Z,99.90
2018-08-25T23:36:28.768Z,99.90
2018-08-25T23:38:57.143Z,99.90
2018-08-25T23:41:25.531Z,99.90
2018-08-25T23:43:53.850Z,99.90
2018-08-25T23:46:22.353Z,99.90
2018-08-25T23:48:50.749Z,99.90
2018-08-25T23:51:19.131Z,99.90
2018-08-25T23:53:47.606Z,99.90
2018-08-25T23:56:16.010Z,99.90
2018-08-25T23:58:44.562Z,99.90
